sensor_id;sensor_type;location;lat;lon;timestamp;P1;durP1;ratioP1;P2;durP2;ratioP2
28625;SDS011;18905;42.668;23.364;2022-12-07T00:00:50;55.78;;;23.60;;
28625;SDS011;18905;42.668;23.364;2022-12-07T00:03:15;48.47;;;23.05;;
28625;SDS011;18905;42.668;23.364;2022-12-07T00:05:40;47.25;;;23.10;;
28625;SDS011;18905;42.668;23.364;2022-12-07T00:08:06;49.05;;;22.67;;
28625;SDS011;18905;42.668;23.364;2022-12-07T00:10:33;50.15;;;22.48;;
28625;SDS011;18905;42.668;23.364;2022-12-07T00:12:59;57.25;;;22.38;;
28625;SDS011;18905;42.668;23.364;2022-12-07T00:15:24;46.63;;;22.38;;
28625;SDS011;18905;42.668;23.364;2022-12-07T00:17:50;45.45;;;22.48;;
28625;SDS011;18905;42.668;23.364;2022-12-07T00:20:15;41.83;;;21.83;;
28625;SDS011;18905;42.668;23.364;2022-12-07T00:22:41;45.70;;;21.05;;
28625;SDS011;18905;42.668;23.364;2022-12-07T00:25:06;47.50;;;22.98;;
28625;SDS011;18905;42.668;23.364;2022-12-07T00:27:32;51.88;;;23.45;;
28625;SDS011;18905;42.668;23.364;2022-12-07T00:29:57;49.42;;;23.58;;
28625;SDS011;18905;42.668;23.364;2022-12-07T00:32:22;52.97;;;21.80;;
28625;SDS011;18905;42.668;23.364;2022-12-07T00:34:48;55.35;;;24.05;;
28625;SDS011;18905;42.668;23.364;2022-12-07T00:37:13;45.72;;;22.95;;
28625;SDS011;18905;42.668;23.364;2022-12-07T00:39:38;56.72;;;25.10;;
28625;SDS011;18905;42.668;23.364;2022-12-07T00:42:04;48.83;;;22.92;;
28625;SDS011;18905;42.668;23.364;2022-12-07T00:44:29;46.35;;;23.55;;
28625;SDS011;18905;42.668;23.364;2022-12-07T00:46:55;54.15;;;24.58;;
28625;SDS011;18905;42.668;23.364;2022-12-07T00:49:20;54.72;;;23.25;;
28625;SDS011;18905;42.668;23.364;2022-12-07T00:51:47;51.35;;;24.38;;
28625;SDS011;18905;42.668;23.364;2022-12-07T00:54:13;50.22;;;23.27;;
28625;SDS011;18905;42.668;23.364;2022-12-07T00:56:38;49.65;;;22.73;;
28625;SDS011;18905;42.668;23.364;2022-12-07T00:59:04;52.38;;;24.15;;
28625;SDS011;18905;42.668;23.364;2022-12-07T01:01:30;48.25;;;23.13;;
28625;SDS011;18905;42.668;23.364;2022-12-07T01:03:58;51.67;;;22.42;;
28625;SDS011;18905;42.668;23.364;2022-12-07T01:06:26;42.45;;;21.33;;
28625;SDS011;18905;42.668;23.364;2022-12-07T01:08:52;48.78;;;22.17;;
28625;SDS011;18905;42.668;23.364;2022-12-07T01:11:19;44.90;;;22.52;;
28625;SDS011;18905;42.668;23.364;2022-12-07T01:13:46;50.80;;;23.02;;
28625;SDS011;18905;42.668;23.364;2022-12-07T01:16:12;50.25;;;22.10;;
28625;SDS011;18905;42.668;23.364;2022-12-07T01:18:39;52.85;;;22.10;;
28625;SDS011;18905;42.668;23.364;2022-12-07T01:21:38;48.90;;;22.30;;
28625;SDS011;18905;42.668;23.364;2022-12-07T01:24:00;53.88;;;24.85;;
28625;SDS011;18905;42.668;23.364;2022-12-07T01:26:26;44.83;;;22.05;;
28625;SDS011;18905;42.668;23.364;2022-12-07T01:28:52;45.20;;;20.92;;
28625;SDS011;18905;42.668;23.364;2022-12-07T01:31:20;50.83;;;22.23;;
28625;SDS011;18905;42.668;23.364;2022-12-07T01:33:48;46.95;;;22.10;;
28625;SDS011;18905;42.668;23.364;2022-12-07T01:38:47;50.60;;;22.55;;
28625;SDS011;18905;42.668;23.364;2022-12-07T01:41:14;42.88;;;21.60;;
28625;SDS011;18905;42.668;23.364;2022-12-07T01:46:37;43.92;;;19.98;;
28625;SDS011;18905;42.668;23.364;2022-12-07T01:49:03;47.72;;;23.90;;
28625;SDS011;18905;42.668;23.364;2022-12-07T01:51:33;52.47;;;24.05;;
28625;SDS011;18905;42.668;23.364;2022-12-07T01:53:59;44.00;;;21.40;;
28625;SDS011;18905;42.668;23.364;2022-12-07T01:56:26;46.03;;;21.90;;
28625;SDS011;18905;42.668;23.364;2022-12-07T01:58:54;60.25;;;23.10;;
28625;SDS011;18905;42.668;23.364;2022-12-07T02:01:22;48.45;;;21.95;;
28625;SDS011;18905;42.668;23.364;2022-12-07T02:03:47;43.13;;;21.88;;
28625;SDS011;18905;42.668;23.364;2022-12-07T02:06:15;50.90;;;23.98;;
28625;SDS011;18905;42.668;23.364;2022-12-07T02:08:44;51.38;;;23.73;;
28625;SDS011;18905;42.668;23.364;2022-12-07T02:11:11;47.15;;;22.75;;
28625;SDS011;18905;42.668;23.364;2022-12-07T02:13:37;52.38;;;23.55;;
28625;SDS011;18905;42.668;23.364;2022-12-07T02:21:53;50.75;;;23.20;;
28625;SDS011;18905;42.668;23.364;2022-12-07T02:25:12;50.45;;;24.00;;
28625;SDS011;18905;42.668;23.364;2022-12-07T02:30:42;54.58;;;26.05;;
28625;SDS011;18905;42.668;23.364;2022-12-07T02:33:16;48.97;;;25.77;;
28625;SDS011;18905;42.668;23.364;2022-12-07T02:35:53;50.88;;;24.55;;
28625;SDS011;18905;42.668;23.364;2022-12-07T02:38:28;47.60;;;24.83;;
28625;SDS011;18905;42.668;23.364;2022-12-07T02:41:17;56.58;;;26.38;;
28625;SDS011;18905;42.668;23.364;2022-12-07T02:44:06;56.85;;;27.00;;
28625;SDS011;18905;42.668;23.364;2022-12-07T02:46:42;51.85;;;24.75;;
28625;SDS011;18905;42.668;23.364;2022-12-07T02:49:11;53.80;;;25.83;;
28625;SDS011;18905;42.668;23.364;2022-12-07T02:51:41;54.90;;;25.33;;
28625;SDS011;18905;42.668;23.364;2022-12-07T02:54:15;51.45;;;25.48;;
28625;SDS011;18905;42.668;23.364;2022-12-07T03:10:16;67.45;;;30.98;;
28625;SDS011;18905;42.668;23.364;2022-12-07T03:12:55;62.85;;;31.98;;
28625;SDS011;18905;42.668;23.364;2022-12-07T03:15:46;67.32;;;34.22;;
28625;SDS011;18905;42.668;23.364;2022-12-07T03:18:15;72.85;;;33.83;;
28625;SDS011;18905;42.668;23.364;2022-12-07T03:20:43;70.38;;;33.22;;
28625;SDS011;18905;42.668;23.364;2022-12-07T03:23:10;69.60;;;33.88;;
28625;SDS011;18905;42.668;23.364;2022-12-07T03:25:41;73.80;;;32.65;;
28625;SDS011;18905;42.668;23.364;2022-12-07T03:28:11;69.53;;;35.80;;
28625;SDS011;18905;42.668;23.364;2022-12-07T03:37:20;73.38;;;36.80;;
28625;SDS011;18905;42.668;23.364;2022-12-07T03:40:00;81.07;;;35.60;;
28625;SDS011;18905;42.668;23.364;2022-12-07T03:42:29;77.72;;;35.65;;
28625;SDS011;18905;42.668;23.364;2022-12-07T03:44:56;70.50;;;33.13;;
28625;SDS011;18905;42.668;23.364;2022-12-07T03:47:33;71.00;;;33.78;;
28625;SDS011;18905;42.668;23.364;2022-12-07T03:50:11;67.30;;;32.05;;
28625;SDS011;18905;42.668;23.364;2022-12-07T03:52:46;66.35;;;32.28;;
28625;SDS011;18905;42.668;23.364;2022-12-07T03:58:06;67.18;;;31.90;;
28625;SDS011;18905;42.668;23.364;2022-12-07T04:00:36;68.35;;;31.85;;
28625;SDS011;18905;42.668;23.364;2022-12-07T04:03:02;63.78;;;31.38;;
28625;SDS011;18905;42.668;23.364;2022-12-07T04:05:27;67.65;;;33.53;;
28625;SDS011;18905;42.668;23.364;2022-12-07T04:07:53;72.35;;;32.75;;
28625;SDS011;18905;42.668;23.364;2022-12-07T04:10:18;65.40;;;30.48;;
28625;SDS011;18905;42.668;23.364;2022-12-07T04:12:43;62.08;;;28.38;;
28625;SDS011;18905;42.668;23.364;2022-12-07T04:15:09;61.22;;;29.92;;
28625;SDS011;18905;42.668;23.364;2022-12-07T04:17:35;63.20;;;29.88;;
28625;SDS011;18905;42.668;23.364;2022-12-07T04:20:01;61.70;;;29.30;;
28625;SDS011;18905;42.668;23.364;2022-12-07T04:22:26;62.92;;;28.92;;
28625;SDS011;18905;42.668;23.364;2022-12-07T04:24:52;65.07;;;28.67;;
28625;SDS011;18905;42.668;23.364;2022-12-07T04:27:17;60.47;;;27.92;;
28625;SDS011;18905;42.668;23.364;2022-12-07T04:29:43;57.97;;;28.90;;
28625;SDS011;18905;42.668;23.364;2022-12-07T04:32:08;86.78;;;27.55;;
28625;SDS011;18905;42.668;23.364;2022-12-07T04:34:33;69.05;;;27.75;;
28625;SDS011;18905;42.668;23.364;2022-12-07T04:36:59;60.85;;;28.67;;
28625;SDS011;18905;42.668;23.364;2022-12-07T04:39:27;58.28;;;27.75;;
28625;SDS011;18905;42.668;23.364;2022-12-07T04:41:54;56.50;;;27.33;;
28625;SDS011;18905;42.668;23.364;2022-12-07T04:44:21;56.05;;;26.60;;
28625;SDS011;18905;42.668;23.364;2022-12-07T04:46:47;57.63;;;27.08;;
28625;SDS011;18905;42.668;23.364;2022-12-07T04:49:13;66.03;;;27.70;;
28625;SDS011;18905;42.668;23.364;2022-12-07T04:51:39;58.53;;;25.63;;
28625;SDS011;18905;42.668;23.364;2022-12-07T04:54:06;58.08;;;28.25;;
28625;SDS011;18905;42.668;23.364;2022-12-07T04:56:31;60.10;;;25.63;;
28625;SDS011;18905;42.668;23.364;2022-12-07T04:58:57;65.15;;;25.67;;
28625;SDS011;18905;42.668;23.364;2022-12-07T05:01:23;57.38;;;26.75;;
28625;SDS011;18905;42.668;23.364;2022-12-07T05:03:49;54.45;;;25.33;;
28625;SDS011;18905;42.668;23.364;2022-12-07T05:06:15;57.97;;;26.00;;
28625;SDS011;18905;42.668;23.364;2022-12-07T05:08:41;69.15;;;28.98;;
28625;SDS011;18905;42.668;23.364;2022-12-07T05:11:07;56.60;;;26.85;;
28625;SDS011;18905;42.668;23.364;2022-12-07T05:13:33;66.20;;;26.23;;
28625;SDS011;18905;42.668;23.364;2022-12-07T05:15:59;54.00;;;26.50;;
28625;SDS011;18905;42.668;23.364;2022-12-07T05:18:25;67.50;;;26.88;;
28625;SDS011;18905;42.668;23.364;2022-12-07T05:20:50;61.10;;;25.98;;
28625;SDS011;18905;42.668;23.364;2022-12-07T05:23:16;61.92;;;26.75;;
28625;SDS011;18905;42.668;23.364;2022-12-07T05:25:42;60.80;;;26.38;;
28625;SDS011;18905;42.668;23.364;2022-12-07T05:28:08;66.00;;;27.73;;
28625;SDS011;18905;42.668;23.364;2022-12-07T05:30:33;73.88;;;30.75;;
28625;SDS011;18905;42.668;23.364;2022-12-07T05:32:58;73.30;;;28.73;;
28625;SDS011;18905;42.668;23.364;2022-12-07T05:35:24;63.08;;;30.17;;
28625;SDS011;18905;42.668;23.364;2022-12-07T05:37:49;65.35;;;29.35;;
28625;SDS011;18905;42.668;23.364;2022-12-07T05:40:15;61.33;;;27.92;;
28625;SDS011;18905;42.668;23.364;2022-12-07T05:42:41;57.15;;;26.67;;
28625;SDS011;18905;42.668;23.364;2022-12-07T05:45:08;65.38;;;29.10;;
28625;SDS011;18905;42.668;23.364;2022-12-07T05:47:34;78.68;;;30.58;;
28625;SDS011;18905;42.668;23.364;2022-12-07T05:50:00;59.95;;;28.27;;
28625;SDS011;18905;42.668;23.364;2022-12-07T05:52:26;88.85;;;34.42;;
28625;SDS011;18905;42.668;23.364;2022-12-07T05:54:51;78.10;;;33.30;;
28625;SDS011;18905;42.668;23.364;2022-12-07T05:57:17;79.45;;;33.35;;
28625;SDS011;18905;42.668;23.364;2022-12-07T05:59:43;76.68;;;34.13;;
28625;SDS011;18905;42.668;23.364;2022-12-07T06:02:09;72.93;;;33.60;;
28625;SDS011;18905;42.668;23.364;2022-12-07T06:04:38;74.07;;;32.13;;
28625;SDS011;18905;42.668;23.364;2022-12-07T06:07:07;69.07;;;30.67;;
28625;SDS011;18905;42.668;23.364;2022-12-07T06:09:34;79.68;;;31.98;;
28625;SDS011;18905;42.668;23.364;2022-12-07T06:12:00;65.82;;;27.92;;
28625;SDS011;18905;42.668;23.364;2022-12-07T06:14:44;68.10;;;29.98;;
28625;SDS011;18905;42.668;23.364;2022-12-07T06:17:10;81.18;;;34.78;;
28625;SDS011;18905;42.668;23.364;2022-12-07T06:19:37;73.78;;;32.08;;
28625;SDS011;18905;42.668;23.364;2022-12-07T06:22:03;84.97;;;33.85;;
28625;SDS011;18905;42.668;23.364;2022-12-07T06:24:29;77.20;;;31.10;;
28625;SDS011;18905;42.668;23.364;2022-12-07T06:26:56;67.20;;;30.17;;
28625;SDS011;18905;42.668;23.364;2022-12-07T06:29:21;62.28;;;29.60;;
28625;SDS011;18905;42.668;23.364;2022-12-07T06:31:47;101.63;;;45.50;;
28625;SDS011;18905;42.668;23.364;2022-12-07T06:34:14;76.85;;;33.47;;
28625;SDS011;18905;42.668;23.364;2022-12-07T06:36:44;72.05;;;32.92;;
28625;SDS011;18905;42.668;23.364;2022-12-07T06:39:10;101.22;;;40.92;;
28625;SDS011;18905;42.668;23.364;2022-12-07T06:41:37;68.22;;;30.67;;
28625;SDS011;18905;42.668;23.364;2022-12-07T06:44:06;66.78;;;30.73;;
28625;SDS011;18905;42.668;23.364;2022-12-07T06:46:32;78.68;;;33.40;;
28625;SDS011;18905;42.668;23.364;2022-12-07T06:48:57;79.78;;;32.80;;
28625;SDS011;18905;42.668;23.364;2022-12-07T06:51:23;64.70;;;28.38;;
28625;SDS011;18905;42.668;23.364;2022-12-07T06:53:48;61.75;;;29.08;;
28625;SDS011;18905;42.668;23.364;2022-12-07T06:56:14;62.53;;;27.83;;
28625;SDS011;18905;42.668;23.364;2022-12-07T06:58:39;62.33;;;29.67;;
28625;SDS011;18905;42.668;23.364;2022-12-07T07:01:15;82.80;;;29.30;;
28625;SDS011;18905;42.668;23.364;2022-12-07T07:03:42;62.90;;;27.95;;
28625;SDS011;18905;42.668;23.364;2022-12-07T07:06:07;69.55;;;28.30;;
28625;SDS011;18905;42.668;23.364;2022-12-07T07:08:33;73.80;;;29.48;;
28625;SDS011;18905;42.668;23.364;2022-12-07T07:11:08;75.13;;;28.40;;
28625;SDS011;18905;42.668;23.364;2022-12-07T07:13:35;63.20;;;28.23;;
28625;SDS011;18905;42.668;23.364;2022-12-07T07:16:00;66.88;;;30.02;;
28625;SDS011;18905;42.668;23.364;2022-12-07T07:18:26;70.43;;;30.10;;
28625;SDS011;18905;42.668;23.364;2022-12-07T07:20:52;65.03;;;28.73;;
28625;SDS011;18905;42.668;23.364;2022-12-07T07:23:18;62.25;;;26.85;;
28625;SDS011;18905;42.668;23.364;2022-12-07T07:25:44;63.55;;;27.60;;
28625;SDS011;18905;42.668;23.364;2022-12-07T07:28:10;51.10;;;25.33;;
28625;SDS011;18905;42.668;23.364;2022-12-07T07:30:35;53.15;;;25.10;;
28625;SDS011;18905;42.668;23.364;2022-12-07T07:33:02;54.33;;;25.27;;
28625;SDS011;18905;42.668;23.364;2022-12-07T07:35:29;51.90;;;25.65;;
28625;SDS011;18905;42.668;23.364;2022-12-07T07:37:55;57.40;;;24.38;;
28625;SDS011;18905;42.668;23.364;2022-12-07T07:40:21;53.63;;;25.65;;
28625;SDS011;18905;42.668;23.364;2022-12-07T07:42:50;71.32;;;30.55;;
28625;SDS011;18905;42.668;23.364;2022-12-07T07:45:16;73.28;;;32.58;;
28625;SDS011;18905;42.668;23.364;2022-12-07T07:47:43;69.65;;;32.72;;
28625;SDS011;18905;42.668;23.364;2022-12-07T07:50:08;66.63;;;30.45;;
28625;SDS011;18905;42.668;23.364;2022-12-07T07:52:34;74.57;;;33.10;;
28625;SDS011;18905;42.668;23.364;2022-12-07T07:55:00;75.95;;;36.35;;
28625;SDS011;18905;42.668;23.364;2022-12-07T07:57:25;74.68;;;35.50;;
28625;SDS011;18905;42.668;23.364;2022-12-07T07:59:50;79.65;;;38.25;;
28625;SDS011;18905;42.668;23.364;2022-12-07T08:02:17;79.38;;;38.55;;
28625;SDS011;18905;42.668;23.364;2022-12-07T08:04:44;107.47;;;48.10;;
28625;SDS011;18905;42.668;23.364;2022-12-07T08:07:11;114.75;;;53.17;;
28625;SDS011;18905;42.668;23.364;2022-12-07T08:09:37;108.75;;;51.83;;
28625;SDS011;18905;42.668;23.364;2022-12-07T08:12:03;107.78;;;51.50;;
28625;SDS011;18905;42.668;23.364;2022-12-07T08:14:29;101.68;;;50.67;;
28625;SDS011;18905;42.668;23.364;2022-12-07T08:16:55;97.68;;;45.90;;
28625;SDS011;18905;42.668;23.364;2022-12-07T08:19:21;104.47;;;46.80;;
28625;SDS011;18905;42.668;23.364;2022-12-07T08:21:46;99.68;;;46.30;;
28625;SDS011;18905;42.668;23.364;2022-12-07T08:24:12;96.55;;;43.97;;
28625;SDS011;18905;42.668;23.364;2022-12-07T08:26:38;87.88;;;40.38;;
28625;SDS011;18905;42.668;23.364;2022-12-07T08:29:03;93.97;;;43.78;;
28625;SDS011;18905;42.668;23.364;2022-12-07T08:31:29;94.22;;;42.30;;
28625;SDS011;18905;42.668;23.364;2022-12-07T08:33:55;90.18;;;40.95;;
28625;SDS011;18905;42.668;23.364;2022-12-07T08:36:21;83.00;;;37.80;;
28625;SDS011;18905;42.668;23.364;2022-12-07T08:38:49;89.43;;;39.42;;
28625;SDS011;18905;42.668;23.364;2022-12-07T08:41:15;83.47;;;38.60;;
28625;SDS011;18905;42.668;23.364;2022-12-07T08:43:40;97.38;;;41.25;;
28625;SDS011;18905;42.668;23.364;2022-12-07T08:48:47;78.82;;;37.00;;
28625;SDS011;18905;42.668;23.364;2022-12-07T08:51:17;87.47;;;36.55;;
28625;SDS011;18905;42.668;23.364;2022-12-07T08:53:42;85.68;;;35.38;;
28625;SDS011;18905;42.668;23.364;2022-12-07T08:56:08;81.45;;;35.65;;
28625;SDS011;18905;42.668;23.364;2022-12-07T08:58:34;68.78;;;34.10;;
28625;SDS011;18905;42.668;23.364;2022-12-07T09:01:02;64.22;;;32.20;;
28625;SDS011;18905;42.668;23.364;2022-12-07T09:03:27;76.75;;;34.13;;
28625;SDS011;18905;42.668;23.364;2022-12-07T09:05:53;63.05;;;31.08;;
28625;SDS011;18905;42.668;23.364;2022-12-07T09:08:19;78.32;;;33.40;;
28625;SDS011;18905;42.668;23.364;2022-12-07T09:10:45;70.07;;;32.33;;
28625;SDS011;18905;42.668;23.364;2022-12-07T09:13:11;63.20;;;34.05;;
28625;SDS011;18905;42.668;23.364;2022-12-07T09:15:36;62.03;;;30.30;;
28625;SDS011;18905;42.668;23.364;2022-12-07T09:18:02;66.78;;;34.20;;
28625;SDS011;18905;42.668;23.364;2022-12-07T09:20:27;77.03;;;34.38;;
28625;SDS011;18905;42.668;23.364;2022-12-07T09:22:53;70.75;;;34.33;;
28625;SDS011;18905;42.668;23.364;2022-12-07T09:25:18;76.63;;;33.83;;
28625;SDS011;18905;42.668;23.364;2022-12-07T09:27:44;75.72;;;33.72;;
28625;SDS011;18905;42.668;23.364;2022-12-07T09:30:09;64.55;;;33.10;;
28625;SDS011;18905;42.668;23.364;2022-12-07T09:32:35;74.28;;;33.50;;
28625;SDS011;18905;42.668;23.364;2022-12-07T09:35:00;74.25;;;34.40;;
28625;SDS011;18905;42.668;23.364;2022-12-07T09:37:26;83.03;;;35.58;;
28625;SDS011;18905;42.668;23.364;2022-12-07T09:39:51;78.20;;;36.58;;
28625;SDS011;18905;42.668;23.364;2022-12-07T09:44:58;77.15;;;35.15;;
28625;SDS011;18905;42.668;23.364;2022-12-07T09:47:24;74.80;;;35.92;;
28625;SDS011;18905;42.668;23.364;2022-12-07T09:49:50;75.45;;;34.95;;
28625;SDS011;18905;42.668;23.364;2022-12-07T09:54:45;74.00;;;35.92;;
28625;SDS011;18905;42.668;23.364;2022-12-07T09:57:12;83.55;;;36.05;;
28625;SDS011;18905;42.668;23.364;2022-12-07T09:59:38;87.45;;;36.10;;
28625;SDS011;18905;42.668;23.364;2022-12-07T10:02:34;74.07;;;33.97;;
28625;SDS011;18905;42.668;23.364;2022-12-07T10:05:01;68.00;;;34.47;;
28625;SDS011;18905;42.668;23.364;2022-12-07T10:07:29;74.43;;;34.67;;
28625;SDS011;18905;42.668;23.364;2022-12-07T10:09:55;72.68;;;34.05;;
28625;SDS011;18905;42.668;23.364;2022-12-07T10:12:20;73.95;;;35.15;;
28625;SDS011;18905;42.668;23.364;2022-12-07T10:17:35;69.97;;;34.20;;
28625;SDS011;18905;42.668;23.364;2022-12-07T10:22:37;76.30;;;34.22;;
28625;SDS011;18905;42.668;23.364;2022-12-07T10:25:16;74.15;;;33.67;;
28625;SDS011;18905;42.668;23.364;2022-12-07T10:27:57;65.88;;;30.63;;
28625;SDS011;18905;42.668;23.364;2022-12-07T10:30:26;63.28;;;30.45;;
28625;SDS011;18905;42.668;23.364;2022-12-07T10:32:52;67.78;;;30.38;;
28625;SDS011;18905;42.668;23.364;2022-12-07T10:35:25;61.35;;;30.08;;
28625;SDS011;18905;42.668;23.364;2022-12-07T10:37:55;59.00;;;27.55;;
28625;SDS011;18905;42.668;23.364;2022-12-07T10:46:13;63.75;;;30.13;;
28625;SDS011;18905;42.668;23.364;2022-12-07T10:55:03;65.35;;;28.20;;
28625;SDS011;18905;42.668;23.364;2022-12-07T11:01:08;57.63;;;26.83;;
28625;SDS011;18905;42.668;23.364;2022-12-07T11:03:52;68.38;;;27.15;;
28625;SDS011;18905;42.668;23.364;2022-12-07T11:12:58;55.72;;;25.83;;
28625;SDS011;18905;42.668;23.364;2022-12-07T11:15:39;57.40;;;26.38;;
28625;SDS011;18905;42.668;23.364;2022-12-07T11:21:55;56.55;;;24.10;;
28625;SDS011;18905;42.668;23.364;2022-12-07T11:24:27;48.30;;;24.40;;
28625;SDS011;18905;42.668;23.364;2022-12-07T11:27:20;52.72;;;23.02;;
28625;SDS011;18905;42.668;23.364;2022-12-07T11:30:19;50.47;;;24.45;;
28625;SDS011;18905;42.668;23.364;2022-12-07T11:35:36;45.42;;;21.92;;
28625;SDS011;18905;42.668;23.364;2022-12-07T11:38:14;48.28;;;22.20;;
28625;SDS011;18905;42.668;23.364;2022-12-07T11:40:47;60.63;;;21.88;;
28625;SDS011;18905;42.668;23.364;2022-12-07T11:43:32;41.70;;;17.30;;
28625;SDS011;18905;42.668;23.364;2022-12-07T11:46:03;41.35;;;16.02;;
28625;SDS011;18905;42.668;23.364;2022-12-07T11:48:33;34.88;;;16.40;;
28625;SDS011;18905;42.668;23.364;2022-12-07T11:51:03;29.27;;;16.05;;
28625;SDS011;18905;42.668;23.364;2022-12-07T11:56:13;33.20;;;14.77;;
28625;SDS011;18905;42.668;23.364;2022-12-07T12:09:06;26.80;;;13.77;;
28625;SDS011;18905;42.668;23.364;2022-12-07T12:11:44;33.55;;;14.80;;
28625;SDS011;18905;42.668;23.364;2022-12-07T12:22:26;35.38;;;15.25;;
28625;SDS011;18905;42.668;23.364;2022-12-07T12:25:00;36.08;;;15.73;;
28625;SDS011;18905;42.668;23.364;2022-12-07T12:27:31;41.92;;;15.82;;
28625;SDS011;18905;42.668;23.364;2022-12-07T12:30:04;38.40;;;17.70;;
28625;SDS011;18905;42.668;23.364;2022-12-07T12:32:39;32.75;;;14.38;;
28625;SDS011;18905;42.668;23.364;2022-12-07T12:37:56;43.75;;;17.63;;
28625;SDS011;18905;42.668;23.364;2022-12-07T12:41:01;40.38;;;18.10;;
28625;SDS011;18905;42.668;23.364;2022-12-07T12:43:40;41.03;;;18.50;;
28625;SDS011;18905;42.668;23.364;2022-12-07T12:48:53;39.85;;;18.95;;
28625;SDS011;18905;42.668;23.364;2022-12-07T12:51:36;42.97;;;16.25;;
28625;SDS011;18905;42.668;23.364;2022-12-07T12:54:05;45.90;;;18.83;;
28625;SDS011;18905;42.668;23.364;2022-12-07T13:05:20;28.75;;;14.35;;
28625;SDS011;18905;42.668;23.364;2022-12-07T13:18:48;32.55;;;15.05;;
28625;SDS011;18905;42.668;23.364;2022-12-07T13:23:26;34.92;;;15.65;;
28625;SDS011;18905;42.668;23.364;2022-12-07T13:25:59;30.77;;;15.35;;
28625;SDS011;18905;42.668;23.364;2022-12-07T13:28:26;33.58;;;15.32;;
28625;SDS011;18905;42.668;23.364;2022-12-07T13:31:53;36.03;;;13.82;;
28625;SDS011;18905;42.668;23.364;2022-12-07T13:33:59;38.30;;;15.77;;
28625;SDS011;18905;42.668;23.364;2022-12-07T13:36:25;40.97;;;14.85;;
28625;SDS011;18905;42.668;23.364;2022-12-07T13:38:57;29.58;;;14.85;;
28625;SDS011;18905;42.668;23.364;2022-12-07T13:41:25;31.95;;;15.70;;
28625;SDS011;18905;42.668;23.364;2022-12-07T13:47:06;28.17;;;14.60;;
28625;SDS011;18905;42.668;23.364;2022-12-07T13:49:45;30.60;;;16.30;;
28625;SDS011;18905;42.668;23.364;2022-12-07T13:54:48;33.40;;;14.70;;
28625;SDS011;18905;42.668;23.364;2022-12-07T13:57:22;25.40;;;14.68;;
28625;SDS011;18905;42.668;23.364;2022-12-07T13:59:50;30.42;;;14.93;;
28625;SDS011;18905;42.668;23.364;2022-12-07T14:02:34;38.00;;;16.08;;
28625;SDS011;18905;42.668;23.364;2022-12-07T14:05:07;29.90;;;15.68;;
28625;SDS011;18905;42.668;23.364;2022-12-07T14:07:53;33.30;;;15.68;;
28625;SDS011;18905;42.668;23.364;2022-12-07T14:10:24;31.42;;;14.88;;
28625;SDS011;18905;42.668;23.364;2022-12-07T14:12:50;26.55;;;14.75;;
28625;SDS011;18905;42.668;23.364;2022-12-07T14:15:23;40.97;;;17.55;;
28625;SDS011;18905;42.668;23.364;2022-12-07T14:17:54;46.50;;;18.73;;
28625;SDS011;18905;42.668;23.364;2022-12-07T14:22:59;38.00;;;15.57;;
28625;SDS011;18905;42.668;23.364;2022-12-07T14:25:33;36.30;;;15.65;;
28625;SDS011;18905;42.668;23.364;2022-12-07T14:28:24;34.75;;;17.13;;
28625;SDS011;18905;42.668;23.364;2022-12-07T14:30:51;32.17;;;15.57;;
28625;SDS011;18905;42.668;23.364;2022-12-07T14:33:17;39.88;;;17.45;;
28625;SDS011;18905;42.668;23.364;2022-12-07T14:35:43;36.05;;;16.60;;
28625;SDS011;18905;42.668;23.364;2022-12-07T14:38:09;35.95;;;17.95;;
28625;SDS011;18905;42.668;23.364;2022-12-07T14:40:34;39.75;;;17.75;;
28625;SDS011;18905;42.668;23.364;2022-12-07T14:43:00;36.05;;;17.92;;
28625;SDS011;18905;42.668;23.364;2022-12-07T14:45:29;43.63;;;18.00;;
28625;SDS011;18905;42.668;23.364;2022-12-07T14:47:55;41.95;;;20.20;;
28625;SDS011;18905;42.668;23.364;2022-12-07T14:50:20;36.97;;;18.55;;
28625;SDS011;18905;42.668;23.364;2022-12-07T14:52:47;45.63;;;20.63;;
28625;SDS011;18905;42.668;23.364;2022-12-07T14:55:23;52.03;;;22.92;;
28625;SDS011;18905;42.668;23.364;2022-12-07T14:57:53;58.25;;;23.10;;
28625;SDS011;18905;42.668;23.364;2022-12-07T15:00:21;64.00;;;27.45;;
28625;SDS011;18905;42.668;23.364;2022-12-07T15:02:48;60.47;;;27.98;;
28625;SDS011;18905;42.668;23.364;2022-12-07T15:05:14;61.28;;;28.02;;
28625;SDS011;18905;42.668;23.364;2022-12-07T15:07:40;45.60;;;21.48;;
28625;SDS011;18905;42.668;23.364;2022-12-07T15:10:06;56.10;;;21.17;;
28625;SDS011;18905;42.668;23.364;2022-12-07T15:12:38;45.38;;;20.15;;
28625;SDS011;18905;42.668;23.364;2022-12-07T15:15:03;55.85;;;22.23;;
28625;SDS011;18905;42.668;23.364;2022-12-07T15:17:29;48.85;;;21.20;;
28625;SDS011;18905;42.668;23.364;2022-12-07T15:19:54;47.65;;;21.65;;
28625;SDS011;18905;42.668;23.364;2022-12-07T15:22:20;62.25;;;30.75;;
28625;SDS011;18905;42.668;23.364;2022-12-07T15:24:45;66.38;;;26.55;;
28625;SDS011;18905;42.668;23.364;2022-12-07T15:27:11;66.65;;;26.10;;
28625;SDS011;18905;42.668;23.364;2022-12-07T15:29:36;74.45;;;24.13;;
28625;SDS011;18905;42.668;23.364;2022-12-07T15:32:01;57.90;;;25.38;;
28625;SDS011;18905;42.668;23.364;2022-12-07T15:34:27;56.88;;;24.27;;
28625;SDS011;18905;42.668;23.364;2022-12-07T15:36:53;58.95;;;24.17;;
28625;SDS011;18905;42.668;23.364;2022-12-07T15:39:19;58.30;;;25.05;;
28625;SDS011;18905;42.668;23.364;2022-12-07T15:41:44;63.22;;;23.92;;
28625;SDS011;18905;42.668;23.364;2022-12-07T15:44:13;62.33;;;23.75;;
28625;SDS011;18905;42.668;23.364;2022-12-07T15:46:57;66.68;;;25.13;;
28625;SDS011;18905;42.668;23.364;2022-12-07T15:49:23;73.43;;;27.02;;
28625;SDS011;18905;42.668;23.364;2022-12-07T15:51:48;54.97;;;23.67;;
28625;SDS011;18905;42.668;23.364;2022-12-07T15:54:23;63.53;;;26.52;;
28625;SDS011;18905;42.668;23.364;2022-12-07T15:56:51;79.45;;;30.00;;
28625;SDS011;18905;42.668;23.364;2022-12-07T15:59:16;68.18;;;27.85;;
28625;SDS011;18905;42.668;23.364;2022-12-07T16:01:42;68.32;;;27.17;;
28625;SDS011;18905;42.668;23.364;2022-12-07T16:04:08;68.60;;;28.08;;
28625;SDS011;18905;42.668;23.364;2022-12-07T16:06:33;59.17;;;25.75;;
28625;SDS011;18905;42.668;23.364;2022-12-07T16:08:59;69.10;;;26.17;;
28625;SDS011;18905;42.668;23.364;2022-12-07T16:11:24;74.20;;;26.20;;
28625;SDS011;18905;42.668;23.364;2022-12-07T16:13:50;70.38;;;27.42;;
28625;SDS011;18905;42.668;23.364;2022-12-07T16:16:16;69.45;;;26.20;;
28625;SDS011;18905;42.668;23.364;2022-12-07T16:18:43;80.60;;;28.00;;
28625;SDS011;18905;42.668;23.364;2022-12-07T16:21:09;81.20;;;27.50;;
28625;SDS011;18905;42.668;23.364;2022-12-07T16:23:35;83.75;;;28.70;;
28625;SDS011;18905;42.668;23.364;2022-12-07T16:26:20;70.90;;;29.13;;
28625;SDS011;18905;42.668;23.364;2022-12-07T16:31:16;76.68;;;30.83;;
28625;SDS011;18905;42.668;23.364;2022-12-07T16:33:43;99.78;;;35.47;;
28625;SDS011;18905;42.668;23.364;2022-12-07T16:36:09;111.35;;;36.40;;